createdAt,value
2022-12-05T00:02:04.175Z,101087.56
2022-12-05T00:04:33.252Z,101091.97
2022-12-05T00:07:01.135Z,101086.50
2022-12-05T00:09:29.094Z,101085.69
2022-12-05T00:11:57.794Z,101081.88
2022-12-05T00:14:25.867Z,101083.78
2022-12-05T00:16:53.827Z,101088.16
2022-12-05T00:19:23.746Z,101090.88
2022-12-05T00:21:51.923Z,100980.00
2022-12-05T00:24:20.211Z,101090.88
2022-12-05T00:26:48.425Z,101097.16
2022-12-05T00:29:16.313Z,101091.72
2022-12-05T00:31:44.622Z,101102.59
2022-12-05T00:34:12.535Z,101083.41
2022-12-05T00:36:41.785Z,101098.44
2022-12-05T00:39:10.914Z,101095.72
2022-12-05T00:41:39.084Z,101096.56
2022-12-05T00:44:07.181Z,101103.03
2022-12-05T00:46:35.650Z,101087.56
2022-12-05T00:49:04.557Z,101099.28
2022-12-05T00:51:33.626Z,101074.81
2022-12-05T00:54:03.580Z,101071.47
2022-12-05T00:56:31.831Z,101091.13
2022-12-05T00:59:00.099Z,101085.69
2022-12-05T01:01:29.663Z,101091.31
2022-12-05T01:03:58.643Z,101083.38
2022-12-05T01:06:26.955Z,101068.97
2022-12-05T01:08:55.128Z,101084.84
2022-12-05T01:11:24.929Z,101076.88
2022-12-05T01:13:52.831Z,101079.59
2022-12-05T01:16:23.495Z,101080.44
2022-12-05T01:18:51.450Z,101083.38
2022-12-05T01:21:19.763Z,101090.47
2022-12-05T01:23:47.718Z,101091.53
2022-12-05T01:26:16.497Z,101102.41
2022-12-05T01:28:45.991Z,101098.84
2022-12-05T01:31:18.791Z,101096.78
2022-12-05T01:33:46.691Z,101097.41
2022-12-05T01:36:14.532Z,101099.09
2022-12-05T01:38:42.695Z,101098.00
2022-12-05T01:41:15.245Z,101103.69
2022-12-05T01:43:57.933Z,101099.91
2022-12-05T01:46:26.031Z,101093.66
2022-12-05T01:48:56.692Z,101019.06
2022-12-05T01:51:24.973Z,101105.56
2022-12-05T01:53:52.893Z,101106.16
2022-12-05T01:56:20.749Z,101110.78
2022-12-05T01:58:48.634Z,101057.28
2022-12-05T02:01:18.327Z,101052.06
2022-12-05T02:03:46.297Z,101057.50
2022-12-05T02:06:14.229Z,101107.84
2022-12-05T02:08:42.593Z,101075.28
2022-12-05T02:11:10.714Z,101112.44
2022-12-05T02:14:05.493Z,101110.56
2022-12-05T02:16:42.487Z,101030.97
2022-12-05T02:19:24.506Z,101118.72
2022-12-05T02:22:36.966Z,101113.28
2022-12-05T02:25:19.643Z,101094.91
2022-12-05T02:28:01.963Z,101089.69
2022-12-05T02:30:31.955Z,101111.84
2022-12-05T02:33:07.879Z,101115.41
2022-12-05T02:35:41.984Z,101076.94
2022-12-05T02:38:16.895Z,101109.13
2022-12-05T02:40:47.668Z,101096.56
2022-12-05T02:43:17.649Z,101114.56
2022-12-05T02:45:47.399Z,101111.00
2022-12-05T02:48:15.422Z,101114.56
2022-12-05T02:50:43.617Z,101109.13
2022-12-05T02:53:12.287Z,101104.09
2022-12-05T02:55:40.222Z,101104.94
2022-12-05T02:58:10.331Z,101030.13
2022-12-05T03:00:39.726Z,101081.16
2022-12-05T03:03:13.892Z,101119.16
2022-12-05T03:05:44.128Z,101116.44
2022-12-05T03:08:15.194Z,101128.16
2022-12-05T03:10:43.455Z,101124.81
2022-12-05T03:13:12.780Z,101122.09
2022-12-05T03:15:44.467Z,101067.13
2022-12-05T03:18:16.129Z,101070.06
2022-12-05T03:20:45.956Z,101135.69
2022-12-05T03:23:15.200Z,101137.56
2022-12-05T03:25:47.717Z,101139.25
2022-12-05T03:28:18.527Z,101077.78
2022-12-05T03:30:46.729Z,101097.44
2022-12-05T03:33:16.545Z,101134.44
2022-12-05T03:35:45.725Z,101136.09
2022-12-05T03:38:14.740Z,101130.63
2022-12-05T03:40:45.458Z,101071.53
2022-12-05T03:43:16.170Z,101134.19
2022-12-05T03:45:46.143Z,101130.63
2022-12-05T03:48:17.685Z,101138.81
2022-12-05T03:50:47.591Z,101100.78
2022-12-05T03:53:20.478Z,101079.03
2022-12-05T03:55:50.680Z,101126.03
2022-12-05T03:58:20.359Z,101137.75
2022-12-05T04:00:48.583Z,101136.09
2022-12-05T04:03:19.571Z,101145.09
2022-12-05T04:05:48.913Z,101133.38
2022-12-05T04:08:18.427Z,101137.16
2022-12-05T04:10:50.579Z,101136.72
2022-12-05T04:13:19.554Z,101143.19
2022-12-05T04:16:07.917Z,101142.34
2022-12-05T04:18:37.805Z,101142.34
2022-12-05T04:21:24.762Z,101141.53
2022-12-05T04:24:13.667Z,101141.97
2022-12-05T04:26:43.310Z,101148.88
2022-12-05T04:29:13.106Z,101151.78
2022-12-05T04:31:42.650Z,101152.41
2022-12-05T04:34:13.314Z,101147.59
2022-12-05T04:36:43.368Z,101160.56
2022-12-05T04:39:17.793Z,101129.66
2022-12-05T04:41:49.859Z,101137.16
2022-12-05T04:44:18.753Z,101161.00
2022-12-05T04:46:46.750Z,101156.41
2022-12-05T04:49:18.514Z,101159.31
2022-12-05T04:51:46.623Z,101153.88
2022-12-05T04:54:16.281Z,101160.16
2022-12-05T04:56:45.261Z,101094.13
2022-12-05T04:59:13.189Z,101155.75
2022-12-05T05:01:43.124Z,101162.03
2022-12-05T05:04:12.680Z,101159.31
2022-12-05T05:06:42.042Z,101116.25
2022-12-05T05:09:10.749Z,101157.44
2022-12-05T05:11:38.898Z,101168.31
2022-12-05T05:14:06.950Z,101172.72
2022-12-05T05:16:36.052Z,101167.28
2022-12-05T05:19:04.007Z,101166.88
2022-12-05T05:21:32.897Z,101179.00
2022-12-05T05:24:02.258Z,101172.72
2022-12-05T05:26:30.381Z,101178.34
2022-12-05T05:28:58.758Z,101176.47
2022-12-05T05:31:27.104Z,101178.59
2022-12-05T05:33:55.727Z,101180.22
2022-12-05T05:36:24.178Z,101175.03
2022-12-05T05:38:53.222Z,101172.50
2022-12-05T05:41:23.623Z,101181.06
2022-12-05T05:43:51.540Z,101182.97
2022-12-05T05:46:20.561Z,101104.13
2022-12-05T05:48:48.534Z,101188.41
2022-12-05T05:51:17.016Z,101191.13
2022-12-05T05:53:44.906Z,101189.22
2022-12-05T05:56:18.549Z,101185.47
2022-12-05T05:58:50.474Z,101183.78
2022-12-05T06:01:20.356Z,101190.91
2022-12-05T06:03:48.679Z,101196.56
2022-12-05T06:06:16.670Z,101190.06
2022-12-05T06:08:44.932Z,101189.22
2022-12-05T06:11:13.874Z,101191.94
2022-12-05T06:13:41.825Z,101197.19
2022-12-05T06:16:11.984Z,101196.16
2022-12-05T06:18:39.925Z,101197.81
2022-12-05T06:21:11.747Z,101202.63
2022-12-05T06:23:43.855Z,101189.47
2022-12-05T06:26:12.149Z,101197.00
2022-12-05T06:28:40.598Z,101197.00
2022-12-05T06:31:11.772Z,101193.44
2022-12-05T06:33:39.742Z,101198.63
2022-12-05T06:36:08.747Z,101200.53
2022-12-05T06:38:40.555Z,101210.34
2022-12-05T06:41:11.135Z,101171.91
2022-12-05T06:43:39.331Z,101213.06
2022-12-05T06:46:07.569Z,101192.78
2022-12-05T06:48:36.984Z,101216.88
2022-12-05T06:51:06.978Z,101223.34
2022-12-05T06:53:34.881Z,101182.59
2022-12-05T06:56:03.760Z,101223.53
2022-12-05T06:58:31.664Z,101226.25
2022-12-05T07:01:17.032Z,101222.50
2022-12-05T07:03:48.849Z,101226.06
2022-12-05T07:06:17.026Z,101234.22
2022-12-05T07:08:44.970Z,101223.53
2022-12-05T07:11:13.216Z,101221.88
2022-12-05T07:13:41.125Z,101238.38
2022-12-05T07:16:09.313Z,101239.22
2022-12-05T07:18:37.350Z,101189.22
2022-12-05T07:21:12.296Z,101240.91
2022-12-05T07:23:41.003Z,101241.75
2022-12-05T07:26:09.740Z,101189.84
2022-12-05T07:28:37.616Z,101254.50
2022-12-05T07:31:06.994Z,101255.34
2022-12-05T07:33:34.874Z,101261.81
2022-12-05T07:36:02.871Z,101258.06
2022-12-05T07:38:32.202Z,101256.38
2022-12-05T07:41:00.427Z,101255.34
2022-12-05T07:43:28.321Z,101237.13
2022-12-05T07:45:56.389Z,101265.38
2022-12-05T07:48:24.369Z,101262.66
2022-12-05T07:50:52.493Z,101259.31
2022-12-05T07:53:20.384Z,101257.44
2022-12-05T07:55:49.630Z,101267.47
2022-12-05T07:58:17.551Z,101271.88
2022-12-05T08:00:45.801Z,101270.19
2022-12-05T08:03:13.754Z,101272.91
2022-12-05T08:05:41.653Z,101273.75
2022-12-05T08:08:09.628Z,101273.75
2022-12-05T08:10:38.261Z,101275.44
2022-12-05T08:13:08.510Z,101281.72
2022-12-05T08:15:36.834Z,101280.22
2022-12-05T08:18:04.866Z,101281.06
2022-12-05T08:20:33.032Z,101278.16
2022-12-05T08:23:00.923Z,101288.19
2022-12-05T08:25:28.793Z,101290.91
2022-12-05T08:27:56.721Z,101291.75
2022-12-05T08:30:26.508Z,101276.06
2022-12-05T08:32:54.446Z,101298.88
2022-12-05T08:35:22.430Z,101296.34
2022-12-05T08:37:50.366Z,101305.53
2022-12-05T08:40:18.406Z,101311.81
2022-12-05T08:42:46.332Z,101310.16
2022-12-05T08:45:14.188Z,101313.69
2022-12-05T08:47:43.456Z,101320.81
2022-12-05T08:50:11.535Z,101328.16
2022-12-05T08:52:39.389Z,101332.53
2022-12-05T08:55:08.377Z,101314.97
2022-12-05T08:57:36.293Z,101326.25
2022-12-05T09:00:06.000Z,101299.25
2022-12-05T09:02:34.168Z,101336.31
2022-12-05T09:05:25.848Z,101334.63
2022-12-05T09:07:51.466Z,101324.59
2022-12-05T09:10:19.980Z,101325.41
2022-12-05T09:12:47.945Z,101333.59
2022-12-05T09:15:15.788Z,101332.75
2022-12-05T09:17:43.887Z,101325.41
2022-12-05T09:20:14.319Z,101333.59
2022-12-05T09:22:42.177Z,101288.38
2022-12-05T09:25:10.759Z,101344.47
2022-12-05T09:27:38.743Z,101279.97
2022-12-05T09:30:11.520Z,101307.41
2022-12-05T09:32:39.462Z,101341.75
2022-12-05T09:35:07.740Z,101309.94
2022-12-05T09:37:39.888Z,101346.34
2022-12-05T09:40:09.301Z,101325.19
2022-12-05T09:42:41.506Z,101241.66
2022-12-05T09:45:17.561Z,101259.03
2022-12-05T09:47:49.515Z,101334.00
2022-12-05T09:50:21.110Z,101309.09
2022-12-05T09:53:06.889Z,101332.13
2022-12-05T09:55:47.023Z,101339.25
2022-12-05T09:58:22.557Z,101337.34
2022-12-05T10:00:51.441Z,101343.63
2022-12-05T10:03:23.810Z,101340.06
2022-12-05T10:05:54.075Z,101341.97
2022-12-05T10:08:26.311Z,101344.47
2022-12-05T10:10:58.547Z,101345.50
2022-12-05T10:13:42.895Z,101331.09
2022-12-05T10:16:12.184Z,101335.47
2022-12-05T10:18:42.184Z,101325.84
2022-12-05T10:21:15.408Z,101320.41
2022-12-05T10:23:57.432Z,101337.34
2022-12-05T10:26:28.440Z,101335.69
2022-12-05T10:28:58.393Z,101334.63
2022-12-05T13:00:05.875Z,101342.78
2022-12-05T13:02:40.165Z,101289.38
2022-12-05T13:05:09.244Z,101318.31
2022-12-05T13:07:39.078Z,101313.91
2022-12-05T13:10:12.476Z,101314.75
2022-12-05T13:12:40.649Z,101313.69
2022-12-05T13:15:14.434Z,101318.31
2022-12-05T13:17:45.194Z,101324.59
2022-12-05T13:20:16.355Z,101316.44
2022-12-05T13:22:44.255Z,101320.84
2022-12-05T13:25:15.374Z,101319.16
2022-12-05T13:27:54.976Z,101316.22
2022-12-05T13:30:23.280Z,101311.84
2022-12-05T13:32:57.355Z,101324.38
2022-12-05T13:35:48.080Z,101315.78
2022-12-05T13:38:38.838Z,101309.50
2022-12-05T13:41:23.946Z,101328.97
2022-12-05T13:44:05.988Z,101325.63
2022-12-05T13:46:34.896Z,101324.59
2022-12-05T13:49:07.181Z,101330.03
2022-12-05T13:51:36.929Z,101297.13
2022-12-05T13:54:06.608Z,101327.09
2022-12-05T13:56:49.084Z,101331.72
2022-12-05T13:59:50.289Z,101327.69
2022-12-05T14:02:52.979Z,101330.03
2022-12-05T14:05:44.880Z,101335.47
2022-12-05T14:08:49.455Z,101326.47
2022-12-05T14:11:18.114Z,101331.91
2022-12-05T14:13:46.375Z,101333.78
2022-12-05T14:16:48.100Z,101334.63
2022-12-05T14:19:52.624Z,101335.47
2022-12-05T14:22:44.836Z,101338.19
2022-12-05T14:25:19.839Z,101333.56
2022-12-05T14:27:51.319Z,101338.56
2022-12-05T14:30:22.981Z,101346.53
2022-12-05T14:32:50.853Z,101343.63
2022-12-05T14:35:19.840Z,101344.47
2022-12-05T14:37:53.720Z,101348.84
2022-12-05T14:40:24.869Z,101352.38
2022-12-05T14:42:54.286Z,101350.50
2022-12-05T14:45:28.482Z,101347.19
2022-12-05T14:47:57.731Z,101344.88
2022-12-05T14:50:41.774Z,101355.56
2022-12-05T14:53:48.002Z,101361.00
2022-12-05T14:56:19.315Z,101361.84
2022-12-05T14:58:50.747Z,101368.13
2022-12-05T15:01:21.186Z,101359.50
2022-12-05T15:04:09.547Z,101368.13
2022-12-05T15:06:45.270Z,101380.88
2022-12-05T15:09:38.780Z,101379.19
2022-12-05T15:12:13.363Z,101382.94
2022-12-05T15:14:48.331Z,101370.38
2022-12-05T15:17:18.251Z,101373.94
2022-12-05T15:19:48.474Z,101383.78
2022-12-05T15:22:16.504Z,101369.53
2022-12-05T15:24:44.366Z,101371.22
2022-12-05T15:27:14.037Z,101367.66
2022-12-05T15:29:41.999Z,101377.50
2022-12-05T15:32:17.213Z,101374.78
2022-12-05T15:34:46.816Z,101372.25
2022-12-05T15:37:16.508Z,101381.25
2022-12-05T15:39:55.855Z,101385.66
2022-12-05T15:42:29.831Z,101379.38
2022-12-05T15:45:13.354Z,101384.00
2022-12-05T15:47:41.389Z,101388.38
2022-12-05T15:50:13.781Z,101388.38
2022-12-05T15:52:43.840Z,101392.13
2022-12-05T15:55:13.868Z,101396.75
2022-12-05T15:57:45.366Z,101393.81
2022-12-05T16:00:17.410Z,101392.13
2022-12-05T16:02:46.668Z,101395.69
2022-12-05T16:05:22.402Z,101400.94
2022-12-05T16:07:50.913Z,101403.84
2022-12-05T16:10:26.152Z,101405.75
2022-12-05T16:13:03.096Z,101405.75
2022-12-05T16:15:31.005Z,101401.97
2022-12-05T16:18:00.203Z,101403.66
2022-12-05T16:20:31.452Z,101406.38
2022-12-05T16:23:01.700Z,101403.66
2022-12-05T16:25:30.849Z,101400.94
2022-12-05T16:28:02.766Z,101403.66
2022-12-05T16:30:30.971Z,101404.69
2022-12-05T16:33:00.755Z,101413.91
2022-12-05T16:35:30.967Z,101412.03
2022-12-05T16:38:06.679Z,101410.97
2022-12-05T16:40:34.593Z,101421.03
2022-12-05T16:43:04.114Z,101416.41
2022-12-05T16:45:41.815Z,101430.84
2022-12-05T16:48:17.428Z,101418.28
2022-12-05T16:50:45.401Z,101428.34
2022-12-05T16:53:19.897Z,101425.00
2022-12-05T16:55:47.783Z,101434.63
2022-12-05T16:58:20.849Z,101428.13
2022-12-05T17:00:48.789Z,101425.41
2022-12-05T17:06:05.191Z,101428.34
2022-12-05T17:08:33.522Z,101430.66
2022-12-05T17:11:02.004Z,101424.59
2022-12-05T17:13:31.480Z,101428.13
2022-12-05T17:15:59.401Z,101426.25
2022-12-05T17:18:31.435Z,101433.16
2022-12-05T17:21:01.099Z,101398.78
2022-12-05T17:23:28.964Z,101437.75
2022-12-05T17:25:57.339Z,101427.91
2022-12-05T17:28:25.724Z,101430.66
2022-12-05T17:30:54.955Z,101434.22
2022-12-05T17:33:22.817Z,101429.59
2022-12-05T17:35:51.960Z,101427.94
2022-12-05T17:38:20.898Z,101429.81
2022-12-05T17:40:48.911Z,101436.94
2022-12-05T17:43:23.113Z,101438.81
2022-12-05T17:45:55.136Z,101428.78
2022-12-05T17:48:23.026Z,101443.19
2022-12-05T17:50:51.120Z,101435.88
2022-12-05T17:53:20.065Z,101429.59
2022-12-05T17:55:48.701Z,101444.25
2022-12-05T17:58:17.283Z,101445.53
2022-12-05T18:00:45.815Z,101429.59
2022-12-05T18:03:16.425Z,101439.88
2022-12-05T18:05:44.706Z,101427.94
2022-12-05T18:08:13.299Z,101443.03
2022-12-05T18:10:42.706Z,101449.31
2022-12-05T18:13:10.607Z,101440.94
2022-12-05T18:15:42.686Z,101449.06
2022-12-05T18:18:14.570Z,101435.28
2022-12-05T18:20:43.997Z,101441.56
2022-12-05T18:23:11.885Z,101449.72
2022-12-05T18:25:39.805Z,101442.41
2022-12-05T18:28:08.095Z,101452.63
2022-12-05T18:30:36.046Z,101456.19
2022-12-05T18:33:03.956Z,101452.03
2022-12-05T18:35:41.754Z,101457.25
2022-12-05T18:38:11.068Z,101465.63
2022-12-05T18:40:39.055Z,101456.44
2022-12-05T18:43:07.025Z,101454.09
2022-12-05T18:45:35.216Z,101444.69
2022-12-05T18:48:37.692Z,101467.09
2022-12-05T18:50:51.264Z,101471.69
2022-12-05T18:53:20.535Z,101475.47
2022-12-05T18:58:36.373Z,101472.72
2022-12-05T19:01:07.151Z,101476.06
2022-12-05T19:03:35.129Z,101451.75
2022-12-05T19:06:03.242Z,101472.72
2022-12-05T19:08:32.547Z,101471.88
2022-12-05T19:11:05.065Z,101469.34
2022-12-05T19:13:32.955Z,101471.22
2022-12-05T19:16:02.837Z,101473.13
2022-12-05T19:18:31.401Z,101477.75
2022-12-05T19:20:59.287Z,101482.34
2022-12-05T19:23:27.417Z,101479.16
2022-12-05T19:25:57.206Z,101475.59
2022-12-05T19:28:25.401Z,101480.19
2022-12-05T19:31:00.357Z,101482.91
2022-12-05T19:33:31.924Z,101489.44
2022-12-05T19:36:03.404Z,101491.31
2022-12-05T19:38:33.199Z,101488.59
2022-12-05T19:41:02.498Z,101492.16
2022-12-05T19:43:30.877Z,101494.03
2022-12-05T19:45:58.907Z,101496.75
2022-12-05T19:48:27.358Z,101494.88
2022-12-05T19:50:56.108Z,101493.78
2022-12-05T19:53:24.059Z,101502.19
2022-12-05T19:55:51.966Z,101495.72
2022-12-05T19:58:21.563Z,101493.78
2022-12-05T20:00:52.382Z,101488.59
2022-12-05T20:03:20.421Z,101486.47
2022-12-05T20:05:57.493Z,101475.84
2022-12-05T20:08:25.429Z,101479.41
2022-12-05T20:10:53.257Z,101476.88
2022-12-05T20:13:45.938Z,101479.41
2022-12-05T20:16:11.509Z,101484.84
2022-12-05T20:18:39.933Z,101481.28
2022-12-05T20:21:08.417Z,101480.44
2022-12-05T20:23:36.289Z,101480.19
2022-12-05T20:26:05.358Z,101478.31
2022-12-05T20:28:35.670Z,101485.63
2022-12-05T20:31:07.383Z,101476.66
2022-12-05T20:33:35.399Z,101480.19
2022-12-05T20:36:04.112Z,101484.00
2022-12-05T20:38:32.579Z,101487.75
2022-12-05T20:41:00.883Z,101488.59
2022-12-05T20:43:28.933Z,101482.91
2022-12-05T20:45:58.241Z,101489.44
2022-12-05T20:48:26.992Z,101490.28
2022-12-05T20:50:55.227Z,101483.75
2022-12-05T20:53:23.189Z,101485.44
2022-12-05T20:55:51.490Z,101490.69
2022-12-05T20:58:19.781Z,101486.28
2022-12-05T21:00:47.969Z,101490.69
2022-12-05T21:03:17.570Z,101487.97
2022-12-05T21:05:45.459Z,101491.53
2022-12-05T21:08:14.187Z,101476.44
2022-12-05T21:10:45.334Z,101479.81
2022-12-05T21:13:13.364Z,101472.69
2022-12-05T21:15:41.409Z,101474.56
2022-12-05T21:18:09.626Z,101469.13
2022-12-05T21:20:42.098Z,101472.88
2022-12-05T21:23:10.477Z,101472.03
2022-12-05T21:25:38.426Z,101471.44
2022-12-05T21:28:06.700Z,101464.31
2022-12-05T21:30:35.681Z,101468.72
2022-12-05T21:33:05.461Z,101474.16
2022-12-05T21:35:33.337Z,101476.03
2022-12-05T21:38:02.906Z,101472.47
2022-12-05T21:40:30.805Z,101476.03
2022-12-05T21:42:58.702Z,101466.19
2022-12-05T21:45:27.268Z,101476.22
2022-12-05T21:47:55.582Z,101468.06
2022-12-05T21:50:23.433Z,101476.22
2022-12-05T21:52:51.322Z,101477.06
2022-12-05T21:55:20.613Z,101473.09
2022-12-05T21:57:48.826Z,101475.38
2022-12-05T22:00:17.214Z,101478.94
2022-12-05T22:02:45.387Z,101471.63
2022-12-05T22:05:13.322Z,101469.75
2022-12-05T22:07:41.693Z,101477.06
2022-12-05T22:10:09.998Z,101470.59
2022-12-05T22:12:39.527Z,101472.47
2022-12-05T22:15:10.344Z,101468.72
2022-12-05T22:17:38.538Z,101472.47
2022-12-05T22:20:07.979Z,101469.94
2022-12-05T22:22:36.531Z,101466.19
2022-12-05T22:25:05.066Z,101467.22
2022-12-05T22:27:33.274Z,101469.94
2022-12-05T22:30:02.682Z,101468.72
2022-12-05T22:32:30.672Z,101472.47
2022-12-05T22:35:03.471Z,101467.22
2022-12-05T22:37:32.305Z,101469.56
2022-12-05T22:40:00.303Z,101467.69
2022-12-05T22:42:28.330Z,101466.00
2022-12-05T22:44:56.214Z,101470.16
2022-12-05T22:47:25.889Z,101467.44
2022-12-05T22:49:53.777Z,101472.88
2022-12-05T22:52:21.622Z,101473.72
2022-12-05T22:54:49.462Z,101462.84
2022-12-05T22:57:17.649Z,101464.72
2022-12-05T22:59:45.630Z,101470.16
2022-12-05T23:02:13.527Z,101465.56
2022-12-05T23:04:42.816Z,101463.88
2022-12-05T23:07:10.771Z,101454.69
2022-12-05T23:09:38.614Z,101457.41
2022-12-05T23:12:06.993Z,101458.06
2022-12-05T23:14:34.912Z,101453.00
2022-12-05T23:17:02.800Z,101454.69
2022-12-05T23:19:30.692Z,101453.84
2022-12-05T23:22:00.176Z,101445.69
2022-12-05T23:24:28.072Z,101448.41
2022-12-05T23:26:55.961Z,101442.97
2022-12-05T23:29:24.189Z,101447.56
2022-12-05T23:31:52.096Z,101453.84
2022-12-05T23:34:20.149Z,101447.38
2022-12-05T23:36:48.050Z,101446.53
2022-12-05T23:39:17.671Z,101440.25
2022-12-05T23:41:46.656Z,101438.38
2022-12-05T23:44:15.011Z,101429.38
2022-12-05T23:46:42.965Z,101438.38
2022-12-05T23:49:11.319Z,101436.69
2022-12-05T23:51:40.315Z,101431.25
2022-12-05T23:54:09.956Z,101432.31
2022-12-05T23:56:39.377Z,101436.69
2022-12-05T23:59:07.956Z,101433.97
